ELLXEBAW

Guest
Details From ELLX - Luxembourg
To EBAW - Antwerp Deurne
Flight Number -
Tags generated
Created
Modified
Stats Distance 115 nm / 214 km
Max Altitude 10,100 ft / 3,078 m
Waypoints 3
Social Downloads 0
Likes 0
Share VATSIM

Download

Looking for another format? Having issues loading an existing format? Contact us
Advertisement - Login to hide

Notes

Basic altitude profile: - Ascent Rate: 2500ft/min - Ascent Speed: 250kts - Cruise Altitude: 35000ft - Cruise Speed: 420kts - Descent Rate: 1500ft/min - Descent Speed: 250kts Options: - Use NATs: yes - Use PACOTS: yes - Use low airways: yes - Use high airways: yes

Route

ELLX RITAX EBAW

ID Type Via Altitude Latitude Longitude Leg Dist Tot Dist Heading (true) Name
O ELLX APT - 0 ft / 0 m 49.62660˚ 6.21151˚ - 0 nm - Luxembourg
RITAX FIX - 10,100 ft / 3,078 m 50.07778˚ 5.80694˚ 31 nm 31 nm 330° / 330° -
O EBAW APT - 0 ft / 0 m 51.19065˚ 4.46378˚ 84 nm 115 nm 323° / 322° Antwerp Deurne

Altitude Profile

Advertisement - Login to hide

ELLX

Details ICAO ELLX (LUX)
Name Luxembourg
Region Luxembourg
Timezone Europe/Luxembourg (UTC+2.0)
Stats Elevation 1,158 ft / 353 m (AMSL)
Location 49.626599° 6.211506°
Runways 1
Magnetic Variation 1.746° E

METAR

ELLX 200920Z 05009KT 020V080 CAVOK 18/10 Q1021 NOSIG

Decode

TAF

TAF ELLX 200500Z 2006/2112 05010KT CAVOK BECMG 2010/2013 08010G25KT 9999 SCT040TCU TEMPO 2010/2022 4500 SHRA SCT035CB PROB40 TEMPO 2013/2018 VRB15G30KT 3500 TSRA BKN030CB BECMG 2021/2024 10008KT 9999 SCT035

Decode

Departure Runways

ID Width Length Bearing (true) Bearing (mag) Surface Threshold Offset Overrun Length
06 197 ft / 60 m 13,135 ft / 4,004 m 60.14° 58.39° Asphalt 0 ft / 0 m 0 ft / 0 m
24 197 ft / 60 m 13,135 ft / 4,004 m 240.18° 238.43° Asphalt 0 ft / 0 m 180 ft / 55 m

EBAW

Details ICAO EBAW (ANR)
Name Antwerp Deurne
Region Belgium
Timezone Europe/Brussels (UTC+2.0)
Stats Elevation 39 ft / 12 m (AMSL)
Location 51.190654° 4.463776°
Runways 2
Magnetic Variation 1.158° E

METAR

EBAW 200920Z 05004KT 340V090 CAVOK 17/10 Q1023 NOSIG

Decode

TAF

Not found

Destination Runways

ID Width Length Bearing (true) Bearing (mag) Surface Threshold Offset Overrun Length
11 148 ft / 45 m 4,931 ft / 1,503 m 109.83° 108.67° Asphalt 472 ft / 144 m 0 ft / 0 m
11L 164 ft / 50 m 3,317 ft / 1,011 m 109.83° 108.67° Grass 0 ft / 0 m 0 ft / 0 m
29 148 ft / 45 m 4,931 ft / 1,503 m 289.85° 288.69° Asphalt 400 ft / 122 m 0 ft / 0 m
29R 164 ft / 50 m 3,317 ft / 1,011 m 289.85° 288.69° Grass 0 ft / 0 m 0 ft / 0 m

Approach Navaids

Runway Type Ident Frequency Range Bearing (true) Bearing (mag) Slope Elevation
29 Localiser IAD 111.75 MHz 18 nm / 33 km 289.64° 288.48° - 39 ft / 12 m (AMSL)
29 Glidescope IAD 111.75 MHz 10 nm / 19 km 289.84° 288.68° 3.00° 39 ft / 12 m (AMSL)
29 DME IAD 111.75 MHz 18 nm / 33 km - - - 39 ft / 12 m (AMSL)

Popular Alternatives